createdAt,value
2023-01-31T01:53:20.693Z,4.30
2023-01-31T01:56:08.624Z,3.80
2023-01-31T01:58:45.075Z,3.10
2023-01-31T02:01:17.624Z,4.05
2023-01-31T02:03:51.982Z,6.57
2023-01-31T02:32:37.867Z,5.32
2023-01-31T03:02:19.433Z,3.28
2023-01-31T03:04:58.789Z,2.75
2023-01-31T03:07:38.366Z,3.35
2023-01-31T03:10:50.761Z,4.57
2023-01-31T03:49:15.255Z,33.60
2023-01-31T03:53:17.225Z,29.88
2023-01-31T04:03:25.361Z,84.80
2023-01-31T04:06:13.367Z,75.20
2023-01-31T04:09:12.900Z,30.38
2023-01-31T05:31:32.986Z,4.80
2023-01-31T06:02:08.846Z,4.85
2023-01-31T06:06:27.143Z,2.15
2023-01-31T06:09:57.786Z,3.17
2023-01-31T06:12:47.237Z,3.00
2023-01-31T06:38:15.579Z,3.42
2023-01-31T06:41:16.580Z,3.72
2023-01-31T06:44:29.323Z,4.13
2023-01-31T06:46:58.136Z,3.47
2023-01-31T06:49:27.060Z,3.55
2023-01-31T06:52:19.267Z,4.03
2023-01-31T07:06:21.607Z,2.47
2023-01-31T07:08:54.683Z,2.90
2023-01-31T07:11:31.580Z,3.55
2023-01-31T07:14:01.141Z,4.68
2023-01-31T07:16:39.168Z,3.40
2023-01-31T07:19:09.027Z,3.40
2023-01-31T07:21:41.710Z,4.60
2023-01-31T07:24:10.253Z,5.90
2023-01-31T07:26:44.774Z,4.30
2023-01-31T07:29:13.942Z,4.90
2023-01-31T07:31:50.692Z,5.18
2023-01-31T07:34:22.963Z,5.13
2023-01-31T07:36:51.758Z,6.25
2023-01-31T07:39:22.249Z,5.88
2023-01-31T07:41:54.507Z,8.10
2023-01-31T07:44:27.359Z,5.18
2023-01-31T07:46:57.437Z,5.53
2023-01-31T07:49:28.618Z,8.25
2023-01-31T07:51:57.223Z,5.40
2023-01-31T07:54:27.434Z,6.10
2023-01-31T07:57:09.754Z,3.20
2023-01-31T07:59:38.838Z,3.85
2023-01-31T08:02:31.142Z,5.65
2023-01-31T08:05:09.007Z,4.53
2023-01-31T08:07:40.181Z,3.65
2023-01-31T08:10:10.435Z,4.47
2023-01-31T08:12:40.346Z,5.30
2023-01-31T08:15:17.343Z,4.88
2023-01-31T08:20:46.072Z,6.35
2023-01-31T08:26:32.111Z,8.35
2023-01-31T08:29:03.603Z,7.97
2023-01-31T08:31:36.180Z,5.80
2023-01-31T08:34:10.558Z,7.28
2023-01-31T08:36:45.037Z,6.65
2023-01-31T08:39:23.788Z,9.10
2023-01-31T08:42:28.404Z,10.75
2023-01-31T08:45:27.195Z,7.30
2023-01-31T08:48:03.519Z,7.97
2023-01-31T08:55:41.003Z,6.47
2023-01-31T08:58:09.675Z,4.78
2023-01-31T09:00:41.848Z,7.25
2023-01-31T09:03:17.473Z,4.57
2023-01-31T09:05:50.377Z,4.03
2023-01-31T09:08:24.587Z,4.20
2023-01-31T09:14:11.070Z,5.50
2023-01-31T09:16:55.620Z,7.47
2023-01-31T09:19:32.422Z,5.80
2023-01-31T09:22:10.235Z,6.05
2023-01-31T09:27:29.789Z,5.38
2023-01-31T09:33:22.780Z,4.45
2023-01-31T09:43:07.436Z,5.72
2023-01-31T09:46:10.057Z,6.72
2023-01-31T10:09:10.696Z,5.63
2023-01-31T10:12:20.100Z,7.25
2023-01-31T10:15:51.901Z,6.78
2023-01-31T10:38:47.762Z,4.22
2023-01-31T10:44:56.807Z,4.95
2023-01-31T10:57:33.925Z,4.65
2023-01-31T11:11:29.743Z,4.18
2023-01-31T11:20:53.847Z,3.70
2023-01-31T11:33:50.543Z,5.70
2023-01-31T11:39:38.977Z,6.72
2023-01-31T11:42:16.991Z,6.78
2023-01-31T11:45:30.792Z,4.43
2023-01-31T11:48:31.692Z,5.20
2023-01-31T11:51:09.134Z,4.90
2023-01-31T11:53:45.765Z,5.38
2023-01-31T11:56:22.218Z,4.90
2023-01-31T12:02:03.906Z,7.93
2023-01-31T12:04:41.161Z,5.40
2023-01-31T12:07:31.875Z,7.47
2023-01-31T12:10:00.815Z,6.70
2023-01-31T12:12:34.721Z,11.60
2023-01-31T12:15:17.480Z,7.05
2023-01-31T12:17:49.839Z,5.55
2023-01-31T12:20:45.576Z,15.05
2023-01-31T12:23:46.477Z,7.25
2023-01-31T12:26:46.977Z,6.10
2023-01-31T12:29:48.444Z,6.82
2023-01-31T12:33:12.616Z,6.70
2023-01-31T13:33:04.960Z,5.32
2023-01-31T13:59:20.184Z,5.18
2023-01-31T14:01:56.519Z,4.93
2023-01-31T14:04:40.104Z,6.35
2023-01-31T14:07:16.631Z,5.10
2023-01-31T14:09:55.945Z,6.57
2023-01-31T14:12:58.318Z,5.95
2023-01-31T14:15:52.105Z,4.75
2023-01-31T14:18:53.307Z,13.88
2023-01-31T14:22:09.857Z,6.88
2023-01-31T14:37:21.099Z,6.68
2023-01-31T14:43:42.451Z,9.82
2023-01-31T14:47:06.627Z,11.93
2023-01-31T15:00:14.961Z,11.07
2023-01-31T15:03:04.820Z,67.43
2023-01-31T15:05:37.038Z,39.35
2023-01-31T15:17:32.047Z,14.55
2023-01-31T15:21:11.251Z,18.23
2023-01-31T15:23:43.096Z,43.05
2023-01-31T15:26:18.982Z,32.97
2023-01-31T15:29:01.292Z,15.55
2023-01-31T15:31:41.413Z,14.65
2023-01-31T15:34:24.776Z,12.98
2023-01-31T15:37:19.063Z,11.63
2023-01-31T15:40:00.034Z,14.57
2023-01-31T15:42:31.136Z,16.27
2023-01-31T15:45:22.163Z,14.52
2023-01-31T15:48:22.618Z,14.50
2023-01-31T15:50:57.120Z,20.58
2023-01-31T16:10:36.312Z,36.13
2023-01-31T16:16:14.335Z,41.20
2023-01-31T16:23:15.246Z,46.30
2023-01-31T16:32:20.260Z,50.30
2023-01-31T16:35:25.325Z,28.92
2023-01-31T16:38:16.748Z,47.75
2023-01-31T16:40:49.859Z,72.93
2023-01-31T16:43:32.382Z,37.85
2023-01-31T16:46:17.011Z,29.17
2023-01-31T16:49:19.028Z,22.88
2023-01-31T16:51:48.952Z,18.40
2023-01-31T16:54:21.410Z,17.23
2023-01-31T16:57:02.483Z,15.80
2023-01-31T16:59:38.057Z,28.25
2023-01-31T17:02:30.163Z,45.30
2023-01-31T17:05:41.584Z,24.05
2023-01-31T17:08:21.169Z,28.77
2023-01-31T17:10:53.072Z,32.35
2023-01-31T17:13:25.238Z,25.25
2023-01-31T17:15:56.044Z,32.95
2023-01-31T17:18:24.402Z,33.08
2023-01-31T17:20:56.819Z,27.80
2023-01-31T17:23:33.128Z,32.58
2023-01-31T17:26:05.999Z,53.47
2023-01-31T17:28:46.864Z,66.32
2023-01-31T17:31:28.553Z,45.53
2023-01-31T17:34:03.871Z,48.63
2023-01-31T17:36:58.939Z,20.77
2023-01-31T17:39:30.295Z,24.42
2023-01-31T17:42:08.286Z,21.50
2023-01-31T17:44:40.237Z,40.10
2023-01-31T17:47:15.320Z,16.90
2023-01-31T17:49:48.591Z,52.60
2023-01-31T17:52:19.651Z,28.58
2023-01-31T17:54:50.628Z,29.80
2023-01-31T17:57:33.098Z,19.80
2023-01-31T18:00:05.326Z,23.25
2023-01-31T18:02:36.431Z,24.58
2023-01-31T18:05:06.560Z,26.67
2023-01-31T18:07:37.371Z,34.53
2023-01-31T18:10:08.313Z,20.85
2023-01-31T18:12:42.650Z,24.25
2023-01-31T18:15:11.337Z,20.13
2023-01-31T18:17:40.112Z,20.08
2023-01-31T18:20:35.386Z,26.38
2023-01-31T18:23:08.659Z,14.45
2023-01-31T18:25:45.284Z,13.45
2023-01-31T18:28:35.210Z,16.02
2023-01-31T18:31:10.812Z,15.05
2023-01-31T18:33:41.470Z,16.85
2023-01-31T18:36:16.204Z,11.02
2023-01-31T18:38:51.274Z,14.45
2023-01-31T18:44:16.823Z,15.73
2023-01-31T18:46:49.769Z,11.50
2023-01-31T18:49:27.751Z,13.15
2023-01-31T18:51:57.952Z,21.08
2023-01-31T18:58:20.787Z,25.65
2023-01-31T19:01:02.943Z,22.20
2023-01-31T19:06:57.118Z,19.20
2023-01-31T19:09:27.756Z,12.77
2023-01-31T19:12:25.145Z,19.60
2023-01-31T19:15:26.900Z,19.52
2023-01-31T19:18:00.932Z,16.73
2023-01-31T19:20:39.011Z,18.77
2023-01-31T19:23:16.853Z,19.30
2023-01-31T19:25:54.120Z,15.30
2023-01-31T19:28:25.778Z,17.25
2023-01-31T19:31:15.612Z,14.57
2023-01-31T19:33:57.486Z,18.23
2023-01-31T19:36:31.929Z,17.48
2023-01-31T19:41:53.138Z,12.88
2023-01-31T19:44:23.496Z,14.27
2023-01-31T20:05:13.241Z,12.23
2023-01-31T20:07:46.608Z,12.27
2023-01-31T20:10:33.577Z,12.32
2023-01-31T20:13:06.158Z,12.07
2023-01-31T20:15:37.742Z,10.70
2023-01-31T20:18:06.630Z,9.15
2023-01-31T20:20:35.055Z,10.10
2023-01-31T20:23:10.435Z,10.88
2023-01-31T20:25:41.754Z,10.45
2023-01-31T20:28:11.245Z,13.68
2023-01-31T20:30:57.808Z,11.93
2023-01-31T20:33:27.444Z,13.93
2023-01-31T20:35:57.791Z,12.38
2023-01-31T20:38:26.951Z,14.65
2023-01-31T20:40:55.704Z,12.55
2023-01-31T20:43:25.897Z,53.70
2023-01-31T20:45:54.511Z,40.15
2023-01-31T20:48:24.254Z,21.23
2023-01-31T20:50:56.745Z,35.42
2023-01-31T20:53:31.974Z,49.03
2023-01-31T20:56:10.012Z,25.02
2023-01-31T20:58:42.486Z,26.10
2023-01-31T21:01:12.747Z,20.80
2023-01-31T21:03:41.924Z,16.92
2023-01-31T21:06:13.340Z,74.93
2023-01-31T21:08:42.041Z,103.47
2023-01-31T21:11:13.805Z,23.00
2023-01-31T21:13:46.868Z,15.77
2023-01-31T21:16:16.729Z,36.85
2023-01-31T21:18:45.535Z,22.95
2023-01-31T21:21:24.157Z,22.50
2023-01-31T21:24:00.289Z,13.57
2023-01-31T21:26:31.832Z,24.23
2023-01-31T21:29:14.603Z,35.83
2023-01-31T21:31:44.641Z,24.33
2023-01-31T21:34:18.464Z,15.82
2023-01-31T21:37:11.722Z,19.70
2023-01-31T21:39:42.278Z,15.95
2023-01-31T21:42:18.118Z,14.75
2023-01-31T21:44:54.506Z,12.38
2023-01-31T21:47:24.570Z,12.27
2023-01-31T21:50:03.777Z,14.13
2023-01-31T21:52:45.521Z,11.38
2023-01-31T21:55:21.789Z,11.30
2023-01-31T21:58:14.674Z,12.00
2023-01-31T22:01:35.954Z,11.00
2023-01-31T22:09:51.759Z,10.60
2023-01-31T22:12:27.815Z,9.80
2023-01-31T22:15:13.364Z,10.07
2023-01-31T22:17:49.779Z,8.68
2023-01-31T22:20:21.132Z,9.23
2023-01-31T22:22:56.178Z,10.30
2023-01-31T22:25:24.699Z,7.72
2023-01-31T22:27:54.623Z,8.70
2023-01-31T22:33:22.134Z,4.95
2023-01-31T22:38:44.049Z,3.15
2023-01-31T22:41:19.908Z,1.80
2023-01-31T22:44:00.671Z,1.35
2023-01-31T22:46:31.693Z,0.90
2023-01-31T22:49:16.746Z,1.30
2023-01-31T22:51:55.550Z,1.60
2023-01-31T22:54:30.300Z,6.70
2023-01-31T22:57:03.339Z,5.63
2023-01-31T22:59:45.391Z,3.47
2023-01-31T23:02:25.708Z,2.30
2023-01-31T23:05:07.403Z,10.48
2023-01-31T23:07:39.950Z,7.60
2023-01-31T23:13:12.351Z,5.78
2023-01-31T23:15:57.504Z,3.47
2023-01-31T23:18:36.367Z,4.53
2023-01-31T23:21:10.103Z,2.75
2023-01-31T23:23:41.140Z,5.22
2023-01-31T23:26:10.116Z,5.55
2023-01-31T23:28:45.026Z,7.93
2023-01-31T23:31:14.127Z,5.72
2023-01-31T23:33:45.421Z,5.70
2023-01-31T23:36:19.680Z,9.55
2023-01-31T23:38:56.222Z,9.75
2023-01-31T23:41:25.912Z,5.68
2023-01-31T23:43:57.399Z,3.78
2023-01-31T23:47:01.290Z,3.78
2023-01-31T23:49:51.320Z,2.20
2023-01-31T23:52:33.051Z,3.20
2023-01-31T23:55:07.446Z,2.40
2023-01-31T23:57:44.302Z,1.65
